Time;durP1;ratioP1;P1;durP2;ratioP2;P2;SDS_P1;SDS_P2;PMS_P1;PMS_P2;Temp;Humidity;BMP_temperature;BMP_pressure;BME280_temperature;BME280_humidity;BME280_pressure;Samples;Min_cycle;Max_cycle;Signal;HPM_P1;HPM_P2
2023/04/12 00:00:12;;;;;;;7.18;1.98;;;13.00;59.80;;;;;;5035777;28;20076;-61
2023/04/12 00:02:38;;;;;;;5.53;2.03;;;12.90;59.90;;;;;;5033789;28;20021;-61
2023/04/12 00:05:04;;;;;;;6.95;1.85;;;13.00;60.10;;;;;;5033222;28;20032;-61
2023/04/12 00:07:31;;;;;;;5.20;1.80;;;12.90;60.30;;;;;;5032877;28;20454;-61
2023/04/12 00:09:56;;;;;;;5.20;1.83;;;12.90;60.60;;;;;;5035622;28;20029;-61
2023/04/12 00:12:22;;;;;;;9.75;2.83;;;12.90;60.90;;;;;;5034040;28;20034;-60
2023/04/12 00:14:48;;;;;;;5.30;1.67;;;12.80;61.10;;;;;;5034580;28;20029;-61
2023/04/12 00:17:14;;;;;;;8.50;2.30;;;12.80;61.50;;;;;;5033167;28;20521;-61
2023/04/12 00:19:40;;;;;;;7.35;1.90;;;12.80;61.90;;;;;;5044033;28;20024;-61
2023/04/12 00:22:10;;;;;;;9.63;2.75;;;12.70;62.10;;;;;;5039594;28;20025;-61
2023/04/12 00:24:39;;;;;;;7.32;1.92;;;12.70;62.50;;;;;;5040540;28;20163;-61
2023/04/12 00:27:05;;;;;;;8.30;2.00;;;12.70;62.80;;;;;;5038307;28;20071;-61
2023/04/12 00:29:32;;;;;;;7.47;2.03;;;12.60;63.00;;;;;;5016621;28;20029;-61
2023/04/12 00:32:00;;;;;;;7.80;2.05;;;12.60;63.30;;;;;;5036462;28;20116;-61
2023/04/12 00:34:27;;;;;;;5.57;1.80;;;12.60;63.60;;;;;;5050705;28;20031;-61
2023/04/12 00:36:54;;;;;;;8.95;1.90;;;12.60;63.80;;;;;;5045525;28;20072;-61
2023/04/12 00:39:20;;;;;;;6.28;1.80;;;12.50;64.00;;;;;;5041568;28;20470;-61
2023/04/12 00:41:45;;;;;;;5.10;1.50;;;12.50;64.30;;;;;;5049791;28;20164;-61
2023/04/12 00:44:11;;;;;;;5.65;1.95;;;12.50;64.60;;;;;;5039326;28;20434;-61
2023/04/12 00:46:37;;;;;;;5.32;1.65;;;12.40;64.80;;;;;;5053251;28;20029;-61
2023/04/12 00:49:04;;;;;;;5.50;1.95;;;12.40;65.10;;;;;;5040277;28;20021;-61
2023/04/12 00:51:32;;;;;;;4.78;1.45;;;12.40;65.30;;;;;;5055157;28;20438;-61
2023/04/12 00:53:58;;;;;;;5.68;1.75;;;12.30;65.60;;;;;;5035769;28;20029;-61
2023/04/12 00:56:26;;;;;;;5.75;1.58;;;12.30;65.90;;;;;;5024639;28;20065;-61
2023/04/12 00:58:53;;;;;;;3.78;1.35;;;12.30;66.00;;;;;;5036874;28;20393;-61
2023/04/12 01:01:20;;;;;;;5.60;1.67;;;12.30;66.20;;;;;;5053643;28;20069;-60
2023/04/12 01:03:47;;;;;;;5.50;1.85;;;12.30;66.70;;;;;;5036302;28;20068;-61
2023/04/12 01:06:28;;;;;;;6.93;2.00;;;12.20;66.50;;;;;;5039509;28;20060;-60
2023/04/12 01:09:10;;;;;;;5.82;1.50;;;12.20;66.80;;;;;;5039046;28;20308;-61
2023/04/12 01:11:50;;;;;;;;;;;12.10;67.00;;;;;;5035072;28;20056;-60
2023/04/12 01:14:31;;;;;;;5.95;1.13;;;12.10;66.80;;;;;;5032679;28;19909;-61
2023/04/12 01:17:03;;;;;;;6.25;1.58;;;12.00;67.00;;;;;;5043914;28;20358;-61
2023/04/12 01:19:34;;;;;;;;;;;12.00;67.20;;;;;;5021435;28;20026;-61
2023/04/12 01:22:03;;;;;;;;;;;12.00;67.00;;;;;;5025022;28;19916;-61
2023/04/12 01:24:57;;;;;;;4.20;1.50;;;12.00;66.90;;;;;;5035538;28;19909;-61
2023/04/12 01:27:45;;;;;;;5.60;1.30;;;12.00;67.30;;;;;;5048989;28;20510;-61
2023/04/12 01:30:15;;;;;;;6.82;1.40;;;12.00;67.50;;;;;;5035356;28;20116;-61
2023/04/12 01:32:44;;;;;;;4.70;1.30;;;12.00;67.70;;;;;;5044048;28;20104;-61
2023/04/12 01:35:11;;;;;;;5.22;1.20;;;11.90;67.90;;;;;;5041745;28;20511;-60
2023/04/12 01:37:38;;;;;;;6.43;1.48;;;11.90;68.30;;;;;;5047379;28;20026;-61
2023/04/12 01:40:05;;;;;;;4.68;1.35;;;11.90;68.40;;;;;;5034758;28;20049;-60
2023/04/12 01:42:31;;;;;;;4.13;1.52;;;11.80;68.60;;;;;;5043339;28;20087;-60
2023/04/12 01:44:57;;;;;;;3.65;1.27;;;11.80;68.80;;;;;;5009389;28;20087;-60
2023/04/12 01:47:23;;;;;;;4.97;1.33;;;11.80;69.00;;;;;;5053148;28;20020;-60
2023/04/12 01:50:06;;;;;;;6.07;1.83;;;11.80;69.10;;;;;;5032538;28;20350;-61
2023/04/12 01:52:37;;;;;;;5.28;1.52;;;11.70;69.30;;;;;;5027687;28;20021;-61
2023/04/12 01:55:05;;;;;;;3.85;1.73;;;11.70;69.50;;;;;;5030898;28;20037;-61
2023/04/12 01:57:32;;;;;;;5.00;1.67;;;11.70;69.70;;;;;;5019331;28;20307;-61
2023/04/12 02:00:01;;;;;;;9.18;1.83;;;11.70;70.00;;;;;;5030328;28;20053;-61
2023/04/12 02:02:28;;;;;;;5.75;1.83;;;11.70;70.20;;;;;;5048805;28;20021;-61
2023/04/12 02:04:55;;;;;;;5.80;1.58;;;11.60;70.20;;;;;;5040991;28;20025;-60
2023/04/12 02:07:21;;;;;;;4.70;1.27;;;11.70;70.40;;;;;;5050248;28;20055;-61
2023/04/12 02:09:47;;;;;;;7.53;1.98;;;11.70;70.60;;;;;;5037817;28;20025;-60
2023/04/12 02:12:13;;;;;;;7.38;1.77;;;11.70;70.70;;;;;;5047761;28;20043;-60
2023/04/12 02:14:38;;;;;;;5.18;1.80;;;11.70;70.80;;;;;;5045266;28;20026;-60
2023/04/12 02:17:04;;;;;;;7.43;1.85;;;11.70;70.90;;;;;;5048325;28;20037;-61
2023/04/12 02:19:31;;;;;;;6.95;1.75;;;11.70;70.90;;;;;;5038195;28;20026;-61
2023/04/12 02:21:57;;;;;;;6.13;1.77;;;11.70;70.90;;;;;;5035804;28;20021;-61
2023/04/12 02:24:23;;;;;;;6.03;1.80;;;11.70;71.10;;;;;;5048733;28;21701;-60
2023/04/12 02:26:50;;;;;;;7.35;1.55;;;11.70;71.10;;;;;;5042924;28;20350;-61
2023/04/12 02:29:16;;;;;;;7.00;1.95;;;11.60;71.20;;;;;;5025058;28;20037;-60
2023/04/12 02:31:47;;;;;;;;;;;11.70;71.30;;;;;;5034867;28;20066;-60
2023/04/12 02:34:14;;;;;;;3.88;1.50;;;11.60;71.10;;;;;;5045853;28;20301;-60
2023/04/12 02:36:49;;;;;;;5.78;1.80;;;11.50;71.10;;;;;;5038627;28;20362;-60
2023/04/12 02:39:20;;;;;;;5.03;1.60;;;11.50;71.30;;;;;;5045574;28;20094;-60
2023/04/12 02:41:48;;;;;;;6.70;1.75;;;11.50;71.40;;;;;;5033089;28;20029;-61
2023/04/12 02:44:14;;;;;;;6.38;1.77;;;11.50;71.40;;;;;;5028923;28;20029;-61
2023/04/12 02:46:45;;;;;;;4.68;1.73;;;11.50;71.50;;;;;;5037188;28;20039;-60
2023/04/12 02:49:13;;;;;;;8.90;1.92;;;11.40;71.50;;;;;;5052270;28;20029;-61
2023/04/12 02:51:40;;;;;;;4.65;1.40;;;11.40;71.60;;;;;;5033697;28;20431;-61
2023/04/12 02:54:07;;;;;;;4.03;1.35;;;11.40;71.70;;;;;;5041080;28;20021;-61
2023/04/12 02:56:48;;;;;;;4.60;1.40;;;11.40;71.70;;;;;;5034969;28;20021;-61
2023/04/12 02:59:31;;;;;;;2.13;1.20;;;11.40;71.70;;;;;;5045502;28;20513;-61
2023/04/12 03:02:10;;;;;;;5.13;1.50;;;11.40;71.80;;;;;;5040342;28;20439;-61
2023/04/12 03:04:38;;;;;;;6.03;1.45;;;11.40;71.80;;;;;;5056015;28;20075;-61
2023/04/12 03:07:06;;;;;;;3.70;1.38;;;11.40;71.80;;;;;;5037546;28;20116;-61
2023/04/12 03:09:43;;;;;;;5.03;1.60;;;11.40;71.80;;;;;;5056697;28;20025;-61
2023/04/12 03:12:11;;;;;;;5.25;1.33;;;11.40;71.70;;;;;;5036117;28;20032;-61
2023/04/12 03:14:45;;;;;;;9.07;1.73;;;11.40;71.70;;;;;;5031232;28;20457;-61
2023/04/12 03:17:10;;;;;;;4.82;1.58;;;11.40;71.60;;;;;;5031766;28;20068;-61
2023/04/12 03:19:36;;;;;;;4.97;1.20;;;11.40;71.60;;;;;;5056365;28;20028;-61
2023/04/12 03:22:03;;;;;;;6.30;1.52;;;11.40;71.60;;;;;;5038670;28;20108;-61
2023/04/12 03:24:33;;;;;;;5.85;2.10;;;11.40;71.70;;;;;;5053726;28;20024;-62
2023/04/12 03:27:01;;;;;;;5.22;1.65;;;11.40;71.70;;;;;;5040271;28;20025;-61
2023/04/12 03:29:29;;;;;;;7.65;1.63;;;11.40;71.80;;;;;;5052227;28;20035;-61
2023/04/12 03:31:56;;;;;;;6.63;1.75;;;11.40;71.70;;;;;;5046560;28;20037;-61
2023/04/12 03:34:30;;;;;;;6.68;2.22;;;11.40;71.80;;;;;;5036997;28;20029;-61
2023/04/12 03:37:00;;;;;;;6.13;1.70;;;11.40;72.00;;;;;;5039566;28;20017;-61
2023/04/12 03:39:39;;;;;;;5.03;1.60;;;11.40;72.00;;;;;;5052239;28;20017;-60
2023/04/12 03:42:07;;;;;;;5.35;1.65;;;11.40;72.00;;;;;;5044817;28;20021;-63
2023/04/12 03:44:44;;;;;;;5.38;1.90;;;11.40;72.10;;;;;;5048214;28;20430;-62
2023/04/12 03:47:12;;;;;;;7.65;2.00;;;11.30;72.10;;;;;;5032570;28;20036;-60
2023/04/12 03:49:38;;;;;;;4.60;1.80;;;11.30;72.20;;;;;;5045183;28;20033;-60
2023/04/12 03:52:07;;;;;;;8.18;2.22;;;11.30;72.30;;;;;;5049641;28;20028;-60
2023/04/12 03:54:34;;;;;;;6.95;1.65;;;11.30;72.30;;;;;;5041136;28;20037;-60
2023/04/12 03:57:05;;;;;;;7.68;2.10;;;11.30;72.40;;;;;;5038837;28;20040;-60
2023/04/12 03:59:37;;;;;;;6.38;1.65;;;11.30;72.40;;;;;;5032611;28;20110;-61
2023/04/12 04:02:04;;;;;;;3.17;1.20;;;11.30;72.50;;;;;;5027224;28;20086;-60
2023/04/12 04:04:32;;;;;;;5.38;1.65;;;11.20;72.60;;;;;;5004794;28;20025;-60
2023/04/12 04:07:03;;;;;;;5.00;1.60;;;11.20;72.60;;;;;;5021436;28;20018;-60
2023/04/12 04:09:36;;;;;;;4.97;1.75;;;11.20;72.90;;;;;;5031606;28;20394;-61
2023/04/12 04:12:02;;;;;;;4.05;1.40;;;11.20;73.00;;;;;;5031296;28;20018;-61
2023/04/12 04:14:33;;;;;;;4.85;1.60;;;11.20;73.10;;;;;;5025576;28;20033;-61
2023/04/12 04:16:59;;;;;;;7.53;2.05;;;11.20;73.10;;;;;;5018423;28;20049;-60
2023/04/12 04:19:25;;;;;;;3.50;1.08;;;11.20;73.10;;;;;;5033553;28;20406;-60
2023/04/12 04:21:52;;;;;;;5.95;1.63;;;11.20;73.20;;;;;;5034708;28;20030;-60
2023/04/12 04:24:17;;;;;;;1.67;0.88;;;11.20;73.20;;;;;;5032732;28;20645;-61
2023/04/12 04:26:49;;;;;;;5.72;1.55;;;11.20;73.30;;;;;;5032782;28;20025;-61
2023/04/12 04:29:24;;;;;;;3.78;1.50;;;11.20;73.40;;;;;;5033605;28;20458;-61
2023/04/12 04:31:52;;;;;;;4.03;1.38;;;11.20;74.20;;;;;;5029293;28;20028;-61
2023/04/12 04:34:17;;;;;;;4.63;1.20;;;11.10;73.60;;;;;;5020578;28;20049;-61
2023/04/12 04:36:46;;;;;;;4.63;1.98;;;11.20;73.80;;;;;;5020106;28;20498;-61
2023/04/12 04:39:19;;;;;;;4.55;1.40;;;11.10;73.90;;;;;;5003419;28;20026;-61
2023/04/12 04:41:45;;;;;;;4.75;1.55;;;11.10;74.00;;;;;;5020184;28;20021;-61
2023/04/12 04:44:19;;;;;;;5.32;1.55;;;11.10;74.00;;;;;;5033774;28;20432;-61
2023/04/12 04:46:51;;;;;;;6.13;1.70;;;11.10;74.10;;;;;;5031746;28;20033;-60
2023/04/12 04:49:17;;;;;;;4.38;1.35;;;11.10;74.20;;;;;;5033720;28;20029;-61
2023/04/12 04:51:43;;;;;;;3.22;0.90;;;11.00;74.20;;;;;;5032574;28;20463;-61
2023/04/12 04:54:10;;;;;;;4.45;1.10;;;11.00;74.40;;;;;;5032558;28;20459;-61
2023/04/12 04:56:39;;;;;;;4.65;1.33;;;11.00;74.50;;;;;;5032455;28;20120;-61
2023/04/12 04:59:06;;;;;;;3.88;1.40;;;11.00;74.60;;;;;;5015221;28;20024;-61
2023/04/12 05:01:35;;;;;;;5.68;1.52;;;10.90;74.60;;;;;;5033862;28;20139;-65
2023/04/12 05:04:01;;;;;;;4.72;2.33;;;10.90;74.80;;;;;;5032801;28;20028;-61
2023/04/12 05:06:27;;;;;;;4.40;1.42;;;10.90;75.00;;;;;;5032939;28;20056;-61
2023/04/12 05:08:55;;;;;;;4.85;1.40;;;10.90;75.10;;;;;;5032422;28;20087;-62
2023/04/12 05:11:22;;;;;;;5.65;1.70;;;10.90;75.10;;;;;;5033565;28;20453;-62
2023/04/12 05:13:48;;;;;;;4.78;1.50;;;10.90;75.20;;;;;;5031850;28;20048;-61
2023/04/12 05:16:14;;;;;;;3.60;1.50;;;10.90;75.30;;;;;;5032145;28;20033;-62
2023/04/12 05:18:40;;;;;;;3.15;1.60;;;10.90;75.30;;;;;;5031527;28;20049;-62
2023/04/12 05:21:06;;;;;;;3.60;1.50;;;10.90;75.30;;;;;;5033071;28;20021;-62
2023/04/12 05:23:36;;;;;;;4.15;1.50;;;10.90;75.40;;;;;;5033229;28;20014;-61
2023/04/12 05:26:03;;;;;;;;;;;10.90;75.60;;;;;;5032925;28;20072;-61
2023/04/12 05:28:31;;;;;;;5.03;1.52;;;10.90;75.30;;;;;;5033293;28;19909;-61
2023/04/12 05:30:57;;;;;;;3.03;1.42;;;10.90;75.30;;;;;;5033098;28;20124;-61
2023/04/12 05:33:33;;;;;;;4.32;1.30;;;10.90;75.40;;;;;;5033145;28;20029;-62
2023/04/12 05:35:59;;;;;;;4.35;1.40;;;10.90;75.40;;;;;;5040141;28;20029;-62
2023/04/12 05:38:27;;;;;;;3.33;1.40;;;10.80;75.60;;;;;;5034378;28;20399;-61
2023/04/12 05:40:56;;;;;;;5.15;1.35;;;10.80;75.70;;;;;;5050039;28;20389;-62
2023/04/12 05:43:22;;;;;;;3.78;1.40;;;10.80;75.80;;;;;;5053042;28;20045;-62
2023/04/12 05:45:49;;;;;;;5.22;1.90;;;10.80;75.90;;;;;;5053013;28;20063;-62
2023/04/12 05:48:17;;;;;;;5.10;1.75;;;10.80;76.00;;;;;;5040435;28;20025;-61
2023/04/12 05:50:50;;;;;;;5.18;1.85;;;10.80;76.00;;;;;;5037763;28;20036;-62
2023/04/12 05:53:16;;;;;;;3.13;1.45;;;10.70;76.10;;;;;;5033915;28;20026;-62
2023/04/12 05:55:41;;;;;;;4.43;1.52;;;10.80;76.20;;;;;;5031545;28;20465;-62
2023/04/12 05:58:08;;;;;;;4.07;1.50;;;10.80;76.20;;;;;;5020167;28;20063;-61
2023/04/12 06:00:35;;;;;;;5.57;1.77;;;10.80;76.40;;;;;;5033268;28;20037;-61
2023/04/12 06:03:01;;;;;;;5.47;1.65;;;10.80;76.40;;;;;;5017426;28;20021;-62
2023/04/12 06:05:27;;;;;;;4.88;1.38;;;10.90;76.30;;;;;;5047280;28;20021;-61
2023/04/12 06:07:53;;;;;;;5.35;1.65;;;11.00;76.40;;;;;;5032258;28;20029;-61
2023/04/12 06:10:18;;;;;;;4.55;1.80;;;11.00;76.30;;;;;;5046284;28;20029;-61
2023/04/12 06:12:48;;;;;;;6.80;1.63;;;11.00;76.30;;;;;;5019208;28;20116;-61
2023/04/12 06:15:14;;;;;;;4.28;1.63;;;11.00;76.50;;;;;;5036976;28;20593;-63
2023/04/12 06:17:40;;;;;;;3.08;1.20;;;11.00;76.50;;;;;;5016144;28;20395;-61
2023/04/12 06:20:09;;;;;;;4.80;1.70;;;11.00;76.50;;;;;;5031883;28;20024;-61
2023/04/12 06:22:37;;;;;;;3.42;1.48;;;11.10;76.50;;;;;;5040479;28;20029;-62
2023/04/12 06:25:04;;;;;;;4.88;1.50;;;11.10;76.40;;;;;;5036650;28;20026;-61
2023/04/12 06:27:30;;;;;;;3.85;1.60;;;11.10;76.50;;;;;;5047390;28;20036;-61
2023/04/12 06:29:56;;;;;;;3.50;1.35;;;11.10;76.50;;;;;;5048106;28;20033;-61
2023/04/12 06:32:22;;;;;;;3.95;1.60;;;11.10;76.60;;;;;;5041652;28;20059;-61
2023/04/12 06:34:48;;;;;;;5.72;1.77;;;11.10;76.70;;;;;;5037872;28;20365;-61
2023/04/12 06:37:14;;;;;;;4.35;1.52;;;11.10;76.70;;;;;;5033339;28;20033;-62
2023/04/12 06:39:40;;;;;;;4.32;1.42;;;11.10;76.70;;;;;;5051642;28;20104;-61
2023/04/12 06:42:06;;;;;;;3.88;1.50;;;11.10;76.80;;;;;;5028734;28;20097;-61
2023/04/12 06:44:33;;;;;;;3.85;1.45;;;11.10;76.90;;;;;;5048154;28;20029;-61
2023/04/12 06:46:59;;;;;;;4.60;1.50;;;11.10;76.90;;;;;;5040919;28;20527;-61
2023/04/12 06:49:25;;;;;;;3.78;1.25;;;11.20;76.90;;;;;;5053050;28;20389;-62
2023/04/12 06:51:51;;;;;;;3.60;1.48;;;11.20;77.00;;;;;;5041561;28;20117;-68
2023/04/12 06:54:16;;;;;;;3.97;1.58;;;11.10;76.90;;;;;;5037845;28;20145;-61
2023/04/12 06:56:42;;;;;;;3.53;1.45;;;11.20;77.00;;;;;;5017752;28;20061;-63
2023/04/12 06:59:08;;;;;;;2.83;1.40;;;11.20;77.10;;;;;;5036577;28;20516;-62
2023/04/12 07:01:34;;;;;;;3.38;1.30;;;11.20;77.10;;;;;;5035768;28;20041;-62
2023/04/12 07:04:00;;;;;;;3.92;1.30;;;11.20;77.10;;;;;;5036498;28;20025;-63
2023/04/12 07:06:29;;;;;;;4.57;1.48;;;11.20;77.10;;;;;;5032762;28;20030;-62
2023/04/12 07:08:54;;;;;;;3.58;1.60;;;11.20;77.20;;;;;;5033168;28;20171;-62
2023/04/12 07:11:23;;;;;;;4.70;1.70;;;11.20;77.20;;;;;;5035367;28;20128;-63
2023/04/12 07:13:50;;;;;;;3.03;1.60;;;11.20;77.30;;;;;;5034103;28;20076;-62
2023/04/12 07:16:16;;;;;;;4.22;1.40;;;11.20;77.30;;;;;;5034598;28;20112;-62
2023/04/12 07:18:43;;;;;;;3.92;1.67;;;11.30;77.40;;;;;;5035168;28;20061;-62
2023/04/12 07:21:08;;;;;;;3.63;1.48;;;11.30;77.40;;;;;;5034173;28;20022;-62
2023/04/12 07:23:34;;;;;;;4.75;1.52;;;11.30;77.40;;;;;;5033919;28;20509;-62
2023/04/12 07:26:01;;;;;;;3.55;1.80;;;11.30;77.40;;;;;;5034560;28;20041;-62
2023/04/12 07:28:27;;;;;;;3.03;1.52;;;11.40;77.60;;;;;;5032428;28;20041;-62
2023/04/12 07:30:52;;;;;;;3.38;1.45;;;11.40;77.60;;;;;;5035222;28;20114;-62
2023/04/12 07:33:18;;;;;;;3.55;1.52;;;11.40;77.60;;;;;;5035207;28;20103;-61
2023/04/12 07:35:44;;;;;;;3.42;1.60;;;11.40;77.60;;;;;;5043460;28;20361;-62
2023/04/12 07:38:10;;;;;;;3.80;1.38;;;11.40;77.70;;;;;;5043710;28;20068;-61
2023/04/12 07:40:35;;;;;;;3.95;1.65;;;11.40;77.70;;;;;;5042517;28;20414;-61
2023/04/12 07:43:01;;;;;;;3.85;1.83;;;11.50;77.70;;;;;;5030547;28;20092;-61
2023/04/12 07:45:28;;;;;;;5.45;1.77;;;11.50;77.60;;;;;;5036174;28;20028;-60
2023/04/12 07:47:53;;;;;;;5.07;1.80;;;11.60;77.60;;;;;;5029672;28;20036;-61
2023/04/12 07:50:19;;;;;;;4.47;1.75;;;11.60;77.60;;;;;;5034724;28;20036;-62
2023/04/12 07:52:45;;;;;;;5.40;1.95;;;11.60;77.60;;;;;;5040092;28;20064;-62
2023/04/12 07:55:11;;;;;;;4.00;1.70;;;11.60;77.70;;;;;;5041462;28;20053;-61
2023/04/12 07:57:37;;;;;;;4.78;2.00;;;11.60;77.80;;;;;;5037898;28;20033;-62
2023/04/12 08:00:04;;;;;;;5.22;2.00;;;11.60;77.90;;;;;;5033668;28;20029;-62
2023/04/12 08:02:38;;;;;;;5.68;2.40;;;11.60;77.90;;;;;;5031837;28;20470;-61
2023/04/12 08:05:05;;;;;;;4.28;1.83;;;11.60;78.00;;;;;;5041978;28;20087;-61
2023/04/12 08:07:31;;;;;;;5.07;2.05;;;11.70;78.00;;;;;;5045927;28;20032;-61
2023/04/12 08:09:56;;;;;;;7.57;2.22;;;11.70;78.00;;;;;;5042554;28;20025;-61
2023/04/12 08:12:22;;;;;;;6.35;2.63;;;11.80;78.10;;;;;;5043076;28;20037;-63
2023/04/12 08:14:48;;;;;;;7.75;2.20;;;11.80;78.00;;;;;;5048619;28;20029;-61
2023/04/12 08:17:15;;;;;;;5.88;2.30;;;11.80;78.10;;;;;;5035750;28;20446;-62
2023/04/12 08:19:41;;;;;;;5.88;2.20;;;11.80;78.10;;;;;;5055532;28;20104;-61
2023/04/12 08:22:07;;;;;;;3.92;1.88;;;11.80;78.10;;;;;;5047711;28;20088;-62
2023/04/12 08:24:32;;;;;;;7.72;2.08;;;11.90;78.20;;;;;;5054871;28;20288;-61
2023/04/12 08:26:59;;;;;;;8.07;2.05;;;11.90;78.20;;;;;;5055956;28;20029;-61
2023/04/12 08:29:25;;;;;;;6.63;2.10;;;12.00;78.20;;;;;;5054840;28;20033;-61
2023/04/12 08:31:52;;;;;;;5.82;2.20;;;12.10;78.00;;;;;;5047726;28;20120;-62
2023/04/12 08:34:19;;;;;;;6.38;2.00;;;12.10;77.80;;;;;;5054425;28;20032;-62
2023/04/12 08:36:45;;;;;;;5.57;1.90;;;12.20;77.60;;;;;;5055639;28;20087;-62
2023/04/12 08:39:11;;;;;;;6.32;2.00;;;12.20;77.60;;;;;;5054355;28;20028;-62
2023/04/12 08:41:37;;;;;;;7.15;2.00;;;12.30;77.40;;;;;;5048383;28;20025;-62
2023/04/12 08:44:04;;;;;;;7.20;1.85;;;12.30;77.30;;;;;;5054520;28;20060;-62
2023/04/12 08:46:30;;;;;;;7.75;2.08;;;12.30;77.30;;;;;;5055426;28;20033;-62
2023/04/12 08:48:57;;;;;;;7.32;2.03;;;12.30;77.20;;;;;;5054383;28;20143;-62
2023/04/12 08:51:22;;;;;;;10.25;2.08;;;12.40;77.10;;;;;;5050021;28;20064;-62
2023/04/12 08:53:49;;;;;;;10.07;2.20;;;12.40;77.00;;;;;;5036319;28;20045;-62
2023/04/12 08:56:17;;;;;;;11.48;2.30;;;12.50;77.00;;;;;;5053865;28;20079;-62
2023/04/12 08:58:49;;;;;;;9.07;2.05;;;12.50;77.00;;;;;;5055461;28;20497;-62
2023/04/12 09:01:16;;;;;;;8.93;2.15;;;12.50;77.00;;;;;;5051861;28;20073;-62
2023/04/12 09:03:43;;;;;;;6.88;2.28;;;12.50;76.90;;;;;;5041192;28;20039;-62
2023/04/12 09:06:10;;;;;;;8.50;2.05;;;12.50;77.00;;;;;;5043092;28;20022;-62
2023/04/12 09:08:36;;;;;;;6.75;1.85;;;12.60;76.90;;;;;;5039688;28;20024;-63
2023/04/12 09:11:20;;;;;;;8.32;2.40;;;12.60;76.70;;;;;;5043332;28;20126;-62
2023/04/12 09:13:45;;;;;;;9.02;2.30;;;12.70;76.60;;;;;;5036251;28;20090;-63
2023/04/12 09:16:11;;;;;;;10.65;2.55;;;12.80;76.40;;;;;;5054135;28;20116;-62
2023/04/12 09:18:50;;;;;;;10.18;2.72;;;12.80;76.10;;;;;;5050139;28;20112;-63
2023/04/12 09:21:17;;;;;;;7.65;2.08;;;12.90;76.00;;;;;;5042713;28;20029;-62
2023/04/12 09:23:42;;;;;;;8.90;2.40;;;13.00;75.90;;;;;;5040767;28;20029;-62
2023/04/12 09:26:25;;;;;;;9.60;2.33;;;13.00;75.80;;;;;;5053972;28;20112;-63
2023/04/12 09:28:51;;;;;;;7.68;2.50;;;13.20;75.70;;;;;;5053900;28;20116;-63
2023/04/12 09:31:16;;;;;;;9.43;2.25;;;13.40;75.30;;;;;;5045513;28;20126;-62
2023/04/12 09:33:42;;;;;;;10.68;2.70;;;13.50;75.60;;;;;;5035197;28;20035;-62
2023/04/12 09:36:12;;;;;;;10.40;2.88;;;13.50;74.80;;;;;;5034106;28;20022;-62
2023/04/12 09:38:40;;;;;;;10.35;3.13;;;13.60;74.70;;;;;;5037119;28;20029;-62
2023/04/12 09:41:17;;;;;;;10.63;2.83;;;13.70;74.50;;;;;;5030270;28;20051;-64
2023/04/12 09:43:43;;;;;;;10.57;2.38;;;13.80;74.30;;;;;;5040233;28;20037;-64
2023/04/12 09:46:11;;;;;;;7.43;2.50;;;13.90;73.90;;;;;;5040768;28;20116;-64
2023/04/12 09:48:39;;;;;;;13.20;2.97;;;14.00;73.60;;;;;;5031063;28;20033;-64
2023/04/12 09:51:10;;;;;;;11.57;2.35;;;14.10;73.50;;;;;;5035082;28;20048;-63
2023/04/12 09:53:40;;;;;;;9.65;2.55;;;14.20;73.20;;;;;;5033310;28;20219;-62
2023/04/12 09:56:08;;;;;;;8.27;2.38;;;14.30;73.00;;;;;;5036784;28;20401;-63
2023/04/12 09:58:36;;;;;;;11.90;3.03;;;14.40;72.70;;;;;;5030728;28;20037;-62
2023/04/12 10:01:04;;;;;;;7.97;2.25;;;14.50;72.40;;;;;;5029512;28;20049;-68
2023/04/12 10:03:30;;;;;;;10.50;3.22;;;14.60;72.10;;;;;;5049006;28;20498;-62
2023/04/12 10:05:56;;;;;;;9.70;2.92;;;14.60;71.70;;;;;;5017312;28;20036;-62
2023/04/12 10:08:23;;;;;;;6.55;1.90;;;14.70;71.50;;;;;;5035142;28;20033;-62
2023/04/12 10:10:49;;;;;;;7.32;2.47;;;14.80;71.20;;;;;;5042571;28;20025;-62
2023/04/12 10:13:16;;;;;;;10.48;2.83;;;14.90;70.90;;;;;;5038027;28;20071;-62
2023/04/12 10:15:45;;;;;;;11.35;2.88;;;14.90;70.70;;;;;;5043701;28;20568;-62
2023/04/12 10:18:14;;;;;;;9.07;2.22;;;14.90;70.60;;;;;;5042777;28;20026;-62
2023/04/12 10:20:42;;;;;;;11.93;2.63;;;14.80;70.50;;;;;;5039111;28;20048;-62
2023/04/12 10:23:13;;;;;;;8.15;2.70;;;14.80;70.50;;;;;;5033746;28;20033;-62
2023/04/12 10:25:41;;;;;;;10.13;2.97;;;14.80;70.40;;;;;;5033061;28;20032;-63
2023/04/12 10:28:18;;;;;;;12.45;3.03;;;14.80;70.10;;;;;;5028743;28;20032;-62
2023/04/12 10:30:48;;;;;;;10.35;2.90;;;14.80;69.50;;;;;;5029675;28;20029;-63
2023/04/12 10:33:15;;;;;;;10.75;2.78;;;14.80;69.50;;;;;;5026916;28;20033;-62
2023/04/12 10:35:47;;;;;;;13.73;2.78;;;14.80;69.20;;;;;;5028879;28;20033;-62
2023/04/12 10:38:14;;;;;;;8.35;2.30;;;14.80;69.10;;;;;;5031840;28;20037;-62
2023/04/12 10:41:15;;;;;;;11.13;2.92;;;14.80;69.10;;;;;;5031733;28;20045;-62
2023/04/12 10:43:43;;;;;;;15.70;2.95;;;15.00;69.00;;;;;;5035677;28;20021;-62
2023/04/12 10:46:37;;;;;;;11.48;3.00;;;15.10;68.50;;;;;;5033263;28;20022;-63
2023/04/12 10:49:08;;;;;;;11.98;2.90;;;15.20;67.80;;;;;;5032101;28;20349;-62
2023/04/12 10:51:34;;;;;;;10.98;3.00;;;15.20;67.90;;;;;;5037215;28;20029;-64
2023/04/12 10:54:06;;;;;;;12.32;2.95;;;15.20;67.60;;;;;;5000288;28;20029;-63
2023/04/12 10:56:35;;;;;;;13.15;3.25;;;15.20;67.30;;;;;;5027018;28;20025;-63
2023/04/12 10:59:02;;;;;;;9.13;2.80;;;15.10;67.10;;;;;;5026358;28;20041;-63
2023/04/12 11:01:34;;;;;;;11.88;3.35;;;14.90;66.90;;;;;;5011605;28;20120;-63
2023/04/12 11:04:20;;;;;;;7.85;2.58;;;14.80;67.30;;;;;;5023310;28;20021;-63
2023/04/12 11:07:10;;;;;;;10.02;3.08;;;14.70;67.40;;;;;;5019753;28;20044;-63
2023/04/12 11:09:56;;;;;;;9.25;2.90;;;14.60;67.50;;;;;;5024140;28;20112;-63
2023/04/12 11:12:32;;;;;;;11.77;3.30;;;14.60;67.30;;;;;;4999245;28;20026;-63
2023/04/12 11:15:03;;;;;;;13.57;3.00;;;14.60;67.30;;;;;;5030446;28;20044;-67
2023/04/12 11:17:53;;;;;;;16.10;2.85;;;14.60;67.20;;;;;;5028640;28;20025;-63
2023/04/12 11:20:19;;;;;;;12.75;2.80;;;14.80;66.90;;;;;;5032500;28;20099;-63
2023/04/12 11:22:44;;;;;;;9.50;2.58;;;14.90;66.60;;;;;;5035561;28;20037;-63
2023/04/12 11:25:15;;;;;;;8.40;2.63;;;15.00;66.50;;;;;;5034755;28;20025;-63
2023/04/12 11:27:49;;;;;;;11.82;2.78;;;15.10;66.30;;;;;;5034876;28;20029;-64
2023/04/12 11:30:15;;;;;;;9.63;2.45;;;15.10;66.00;;;;;;5035802;28;20057;-63
2023/04/12 11:32:44;;;;;;;8.85;2.38;;;15.10;66.00;;;;;;5036647;28;20501;-63
2023/04/12 11:35:10;;;;;;;11.07;2.70;;;15.00;66.00;;;;;;5039847;28;20037;-63
2023/04/12 11:37:37;;;;;;;10.63;2.55;;;14.90;66.10;;;;;;5055635;28;20033;-63
2023/04/12 11:40:06;;;;;;;12.73;3.03;;;14.80;66.20;;;;;;5048544;28;20033;-63
2023/04/12 11:42:32;;;;;;;13.50;2.58;;;14.70;66.20;;;;;;5045873;28;20501;-63
2023/04/12 11:44:58;;;;;;;12.65;3.08;;;14.60;66.00;;;;;;5049661;28;20017;-63
2023/04/12 11:47:24;;;;;;;13.32;3.00;;;14.50;66.10;;;;;;5056309;28;20345;-63
2023/04/12 11:49:55;;;;;;;9.07;2.90;;;14.50;66.20;;;;;;5056662;28;20442;-63
2023/04/12 11:52:30;;;;;;;13.10;2.70;;;14.60;66.10;;;;;;5044163;28;20116;-63
2023/04/12 11:54:58;;;;;;;13.35;3.17;;;14.70;66.00;;;;;;5055201;28;20053;-63
2023/04/12 11:57:23;;;;;;;10.45;3.40;;;14.70;65.60;;;;;;5050602;28;20477;-63
2023/04/12 11:59:49;;;;;;;11.85;2.90;;;14.70;65.60;;;;;;5047338;28;20029;-63
2023/04/12 12:02:16;;;;;;;14.98;3.17;;;14.70;65.70;;;;;;5046271;28;20029;-63
2023/04/12 12:04:47;;;;;;;10.68;2.80;;;14.70;65.70;;;;;;5049713;28;20028;-64
2023/04/12 12:07:15;;;;;;;13.25;2.88;;;14.70;65.40;;;;;;5055873;28;20041;-63
2023/04/12 12:09:42;;;;;;;10.80;2.53;;;14.70;65.00;;;;;;5054969;28;20462;-63
2023/04/12 12:12:11;;;;;;;11.13;2.60;;;14.70;64.50;;;;;;5046826;28;20442;-63
2023/04/12 12:14:36;;;;;;;13.32;2.28;;;14.80;63.50;;;;;;5054699;28;20025;-63
2023/04/12 12:17:12;;;;;;;13.18;2.25;;;14.70;63.00;;;;;;5055979;28;20330;-63
2023/04/12 12:19:40;;;;;;;10.43;2.63;;;14.60;62.40;;;;;;5055882;28;20044;-63
2023/04/12 12:22:21;;;;;;;9.80;2.08;;;14.50;62.30;;;;;;5050998;28;20022;-63
2023/04/12 12:24:58;;;;;;;11.32;1.98;;;14.50;62.10;;;;;;5029534;28;20021;-63
2023/04/12 12:27:33;;;;;;;10.57;2.30;;;14.40;62.10;;;;;;5054466;28;20025;-63
2023/04/12 12:30:01;;;;;;;9.85;2.28;;;14.40;62.10;;;;;;5055798;28;20171;-63
2023/04/12 12:32:32;;;;;;;8.90;2.28;;;14.40;62.10;;;;;;5050507;28;20035;-64
2023/04/12 12:34:58;;;;;;;8.30;2.00;;;14.40;61.70;;;;;;5027883;28;20120;-63
2023/04/12 12:37:28;;;;;;;8.40;1.90;;;14.50;61.60;;;;;;5055633;28;20175;-64
2023/04/12 12:40:20;;;;;;;12.75;2.28;;;14.60;61.50;;;;;;5054385;28;20017;-63
2023/04/12 12:42:51;;;;;;;10.65;2.05;;;14.60;61.20;;;;;;5050951;28;20075;-63
2023/04/12 12:45:19;;;;;;;9.77;2.40;;;14.70;61.10;;;;;;5052911;28;20473;-63
2023/04/12 12:47:50;;;;;;;7.40;2.53;;;14.70;61.10;;;;;;5054420;28;20044;-63
2023/04/12 12:50:17;;;;;;;10.30;2.38;;;14.60;60.90;;;;;;5055119;28;20032;-63
2023/04/12 12:52:45;;;;;;;10.95;2.17;;;14.60;61.00;;;;;;5054638;28;20353;-63